createdAt,value
2023-03-07T00:01:38.777Z,96991.16
2023-03-07T00:04:05.820Z,97003.34
2023-03-07T00:06:33.103Z,96998.72
2023-03-07T00:09:08.397Z,97011.13
2023-03-07T00:11:35.487Z,97004.03
2023-03-07T00:14:02.830Z,96992.53
2023-03-07T00:16:29.996Z,96998.72
2023-03-07T00:18:58.061Z,96989.41
2023-03-07T00:21:27.662Z,97003.69
2023-03-07T00:23:54.746Z,97013.84
2023-03-07T00:26:23.246Z,97007.47
2023-03-07T00:28:51.795Z,97008.56
2023-03-07T00:31:22.551Z,97026.22
2023-03-07T00:33:49.647Z,97024.44
2023-03-07T00:36:22.020Z,97010.06
2023-03-07T00:41:54.366Z,97016.47
2023-03-07T00:44:23.513Z,97006.50
2023-03-07T00:49:45.978Z,97012.69
2023-03-07T00:52:33.796Z,97014.28
2023-03-07T00:55:01.234Z,97010.97
2023-03-07T01:03:38.036Z,97023.66
2023-03-07T01:06:07.875Z,97015.81
2023-03-07T01:08:35.696Z,97012.75
2023-03-07T01:13:51.832Z,97007.66
2023-03-07T01:16:24.098Z,96993.28
2023-03-07T01:22:33.419Z,96987.44
2023-03-07T01:25:01.048Z,96961.00
2023-03-07T01:27:29.522Z,96968.19
2023-03-07T01:33:03.497Z,96975.97
2023-03-07T01:35:31.532Z,96976.13
2023-03-07T01:55:18.925Z,96951.75
2023-03-07T02:03:50.290Z,96949.47
2023-03-07T02:06:18.619Z,96941.22
2023-03-07T02:20:57.963Z,96956.94
2023-03-07T02:23:51.471Z,96953.69
2023-03-07T02:31:34.468Z,96956.19
2023-03-07T02:36:43.543Z,96957.91
2023-03-07T02:56:03.355Z,96935.06
2023-03-07T03:01:19.234Z,96940.94
2023-03-07T03:06:35.216Z,96931.66
2023-03-07T03:12:19.369Z,96918.69
2023-03-07T03:17:41.786Z,96931.16
2023-03-07T03:34:00.297Z,96939.88
2023-03-07T03:45:35.897Z,96953.53
2023-03-07T04:37:25.094Z,96948.19
2023-03-07T04:48:43.893Z,96952.87
2023-03-07T06:20:41.897Z,97005.72
2023-03-07T06:23:08.816Z,96997.19
2023-03-07T06:25:35.756Z,96994.69
2023-03-07T06:28:02.693Z,97003.91
2023-03-07T06:30:29.669Z,97006.63
2023-03-07T06:32:56.616Z,96997.63
2023-03-07T06:35:23.498Z,97012.78
2023-03-07T06:37:51.358Z,97015.66
2023-03-07T06:40:18.405Z,97019.09
2023-03-07T06:42:45.275Z,97014.13
2023-03-07T06:45:12.069Z,97012.44
2023-03-07T06:47:38.982Z,97014.03
2023-03-07T06:50:06.432Z,97019.59
2023-03-07T06:52:33.278Z,97028.31
2023-03-07T06:55:01.311Z,97017.53
2023-03-07T06:57:28.030Z,97028.59
2023-03-07T06:59:55.000Z,97012.87
2023-03-07T07:02:22.021Z,97019.56
2023-03-07T07:04:48.999Z,97013.44
2023-03-07T07:07:15.880Z,97012.31
2023-03-07T07:09:42.802Z,97020.34
2023-03-07T07:12:11.965Z,97014.25
2023-03-07T07:14:38.800Z,97016.03
2023-03-07T07:17:05.633Z,97015.03
2023-03-07T07:19:32.563Z,97026.69
2023-03-07T07:21:59.429Z,97022.28
2023-03-07T07:24:26.190Z,97022.81
2023-03-07T07:26:53.340Z,97022.88
2023-03-07T07:29:21.102Z,97014.81
2023-03-07T07:31:49.832Z,97028.22
2023-03-07T07:34:16.972Z,97017.84
2023-03-07T07:36:43.838Z,97023.31
2023-03-07T07:39:10.746Z,97026.19
2023-03-07T07:41:37.639Z,97030.16
2023-03-07T07:44:04.623Z,97030.25
2023-03-07T07:46:31.469Z,97019.69
2023-03-07T07:48:58.193Z,97030.16
2023-03-07T07:51:25.024Z,97018.78
2023-03-07T07:53:51.768Z,97028.13
2023-03-07T07:56:18.680Z,97020.72
2023-03-07T07:58:45.592Z,97026.59
2023-03-07T08:01:19.692Z,97025.66
2023-03-07T08:03:47.086Z,97026.97
2023-03-07T08:06:19.864Z,97025.88
2023-03-07T08:08:48.288Z,97030.22
2023-03-07T08:11:19.516Z,97024.38
2023-03-07T08:13:49.763Z,97028.28
2023-03-07T08:16:19.425Z,97026.41
2023-03-07T08:18:53.537Z,97018.38
2023-03-07T08:21:21.447Z,97022.09
2023-03-07T08:23:48.614Z,97026.97
2023-03-07T08:26:15.623Z,97026.97
2023-03-07T08:28:42.695Z,97026.66
2023-03-07T08:31:11.603Z,97034.91
2023-03-07T08:33:39.277Z,97023.91
2023-03-07T08:36:06.947Z,97031.09
2023-03-07T08:38:34.133Z,97033.84
2023-03-07T08:41:06.034Z,97039.62
2023-03-07T08:43:33.935Z,97039.53
2023-03-07T08:46:00.934Z,97045.34
2023-03-07T08:48:28.375Z,97040.16
2023-03-07T08:50:55.711Z,97045.53
2023-03-07T08:53:23.037Z,97044.94
2023-03-07T08:55:50.090Z,97049.03
2023-03-07T08:58:17.000Z,97057.94
2023-03-07T09:00:43.896Z,97057.28
2023-03-07T09:03:10.816Z,97061.47
2023-03-07T09:05:40.917Z,97057.50
2023-03-07T09:08:08.890Z,97064.25
2023-03-07T09:10:35.803Z,97061.28
2023-03-07T09:13:02.678Z,97061.19
2023-03-07T09:15:29.632Z,97060.84
2023-03-07T09:17:56.602Z,97058.87
2023-03-07T09:20:23.571Z,97060.69
2023-03-07T09:22:51.860Z,97057.28
2023-03-07T09:25:19.046Z,97051.75
2023-03-07T09:27:45.992Z,97046.97
2023-03-07T09:30:14.190Z,97053.09
2023-03-07T09:32:41.106Z,97055.50
2023-03-07T09:35:08.604Z,97051.78
2023-03-07T09:37:35.573Z,97052.03
2023-03-07T09:40:07.408Z,97051.47
2023-03-07T09:43:13.707Z,97046.56
2023-03-07T09:45:55.948Z,97049.41
2023-03-07T09:48:36.676Z,97051.91
2023-03-07T09:51:12.220Z,97052.81
2023-03-07T09:53:50.001Z,97036.13
2023-03-07T09:56:38.656Z,97052.19
2023-03-07T09:59:23.961Z,97048.22
2023-03-07T10:02:13.999Z,97051.69
2023-03-07T10:05:08.707Z,97052.72
2023-03-07T10:07:36.377Z,97052.72
2023-03-07T10:10:11.161Z,97053.63
2023-03-07T10:13:34.360Z,97060.22
2023-03-07T10:16:05.751Z,97050.41
2023-03-07T10:19:13.970Z,97046.28
2023-03-07T10:22:06.065Z,97057.72
2023-03-07T10:24:37.088Z,97050.41
2023-03-07T10:27:09.887Z,97050.94
2023-03-07T10:29:42.161Z,97049.31
2023-03-07T10:32:41.089Z,97049.19
2023-03-07T10:35:25.003Z,97044.44
2023-03-07T10:37:54.490Z,97044.53
2023-03-07T10:40:30.584Z,97040.94
2023-03-07T10:42:58.892Z,97035.59
2023-03-07T10:45:29.566Z,97035.16
2023-03-07T10:48:00.191Z,97033.94
2023-03-07T10:50:52.668Z,97034.72
2023-03-07T10:53:28.050Z,97029.72
2023-03-07T10:56:13.317Z,97031.25
2023-03-07T10:58:41.580Z,97032.06
2023-03-07T11:01:08.500Z,97019.97
2023-03-07T11:03:55.817Z,97013.63
2023-03-07T11:06:34.559Z,97017.56
2023-03-07T11:09:18.722Z,97022.06
2023-03-07T11:11:51.773Z,97014.03
2023-03-07T11:14:19.168Z,97014.84
2023-03-07T11:17:13.317Z,97012.13
2023-03-07T11:19:45.505Z,97005.16
2023-03-07T11:22:39.124Z,97003.00
2023-03-07T11:25:23.580Z,96993.53
2023-03-07T11:27:54.620Z,97001.25
2023-03-07T11:30:35.714Z,96986.31
2023-03-07T11:33:17.466Z,96985.91
2023-03-07T11:35:56.913Z,96986.88
2023-03-07T11:38:37.266Z,96992.06
2023-03-07T11:41:19.169Z,96988.19
2023-03-07T11:44:10.899Z,96983.63
2023-03-07T11:46:41.138Z,96967.84
2023-03-07T11:49:30.544Z,96960.94
2023-03-07T11:52:04.750Z,96962.19
2023-03-07T11:55:09.828Z,96956.53
2023-03-07T11:57:58.739Z,96959.72
2023-03-07T12:00:25.597Z,96955.34
2023-03-07T12:03:04.676Z,96947.72
2023-03-07T12:05:54.535Z,96950.78
2023-03-07T12:08:45.895Z,96946.78
2023-03-07T12:11:19.158Z,96937.47
2023-03-07T12:13:54.752Z,96935.88
2023-03-07T12:16:33.484Z,96923.88
2023-03-07T12:19:20.988Z,96916.56
2023-03-07T12:22:14.208Z,96927.31
2023-03-07T12:24:55.989Z,96916.50
2023-03-07T12:27:34.523Z,96916.38
2023-03-07T12:30:14.621Z,96902.50
2023-03-07T12:32:41.886Z,96910.53
2023-03-07T12:35:15.246Z,96902.75
2023-03-07T12:37:51.881Z,96900.47
2023-03-07T12:40:22.239Z,96906.19
2023-03-07T12:42:57.929Z,96899.41
2023-03-07T12:45:27.912Z,96896.53
2023-03-07T12:47:55.283Z,96916.44
2023-03-07T12:50:38.067Z,96905.44
2023-03-07T12:53:36.143Z,96910.22
2023-03-07T12:56:10.280Z,96911.78
2023-03-07T12:58:45.094Z,96901.81
2023-03-07T13:01:35.299Z,96899.19
2023-03-07T13:04:28.677Z,96889.69
2023-03-07T13:07:02.336Z,96888.91
2023-03-07T13:09:32.476Z,96892.59
2023-03-07T13:12:20.196Z,96890.81
2023-03-07T13:15:07.986Z,96891.09
2023-03-07T13:17:38.358Z,96902.09
2023-03-07T13:20:20.040Z,96896.41
2023-03-07T13:22:46.850Z,96898.19
2023-03-07T13:25:19.955Z,96898.97
2023-03-07T13:28:00.295Z,96904.59
2023-03-07T13:30:31.433Z,96896.22
2023-03-07T13:33:03.395Z,96903.69
2023-03-07T13:35:35.752Z,96900.72
2023-03-07T13:38:13.455Z,96898.25
2023-03-07T13:40:49.199Z,96893.91
2023-03-07T13:43:19.288Z,96884.97
2023-03-07T13:46:06.053Z,96885.66
2023-03-07T13:48:32.873Z,96880.53
2023-03-07T13:50:59.513Z,96875.87
2023-03-07T13:53:32.025Z,96884.69
2023-03-07T13:56:17.170Z,96870.69
2023-03-07T13:59:04.238Z,96869.75
2023-03-07T14:01:42.997Z,96865.00
2023-03-07T14:04:39.497Z,96871.91
2023-03-07T14:07:32.544Z,96864.28
2023-03-07T14:10:19.566Z,96858.69
2023-03-07T14:13:05.366Z,96860.28
2023-03-07T14:15:50.809Z,96853.84
2023-03-07T14:18:20.447Z,96845.81
2023-03-07T14:21:07.138Z,96841.72
2023-03-07T14:24:08.444Z,96832.44
2023-03-07T14:26:40.048Z,96824.97
2023-03-07T14:29:18.007Z,96828.53
2023-03-07T14:31:45.650Z,96837.03
2023-03-07T14:34:27.313Z,96825.31
2023-03-07T14:37:04.556Z,96812.31
2023-03-07T14:39:59.594Z,96819.62
2023-03-07T14:42:31.645Z,96810.97
2023-03-07T14:45:27.629Z,96818.59
2023-03-07T14:48:33.608Z,96816.72
2023-03-07T14:51:06.121Z,96804.00
2023-03-07T14:53:34.804Z,96799.63
2023-03-07T14:56:01.902Z,96795.09
2023-03-07T14:58:32.725Z,96791.59
2023-03-07T15:01:11.028Z,96797.69
2023-03-07T15:03:51.934Z,96781.75
2023-03-07T15:06:21.896Z,96788.03
2023-03-07T15:08:49.496Z,96788.47
2023-03-07T15:11:37.136Z,96782.78
2023-03-07T15:14:05.420Z,96780.78
2023-03-07T15:16:37.838Z,96774.97
2023-03-07T15:19:32.246Z,96770.44
2023-03-07T15:22:05.066Z,96762.75
2023-03-07T15:24:39.728Z,96756.41
2023-03-07T15:27:10.630Z,96753.84
2023-03-07T15:29:39.398Z,96752.91
2023-03-07T15:32:07.850Z,96740.44
2023-03-07T15:34:39.450Z,96747.06
2023-03-07T15:37:27.394Z,96741.78
2023-03-07T15:40:14.864Z,96743.66
2023-03-07T15:43:17.805Z,96738.81
2023-03-07T15:45:46.545Z,96733.50
2023-03-07T15:48:38.997Z,96728.63
2023-03-07T15:51:15.246Z,96728.75
2023-03-07T15:53:43.309Z,96718.84
2023-03-07T15:56:41.544Z,96727.66
2023-03-07T15:59:18.620Z,96712.06
2023-03-07T16:01:45.541Z,96723.94
2023-03-07T16:04:37.540Z,96717.38
2023-03-07T16:33:13.443Z,96699.34
2023-03-07T16:46:29.575Z,96695.94
2023-03-07T16:48:56.656Z,96694.91
2023-03-07T16:51:26.320Z,96696.66
2023-03-07T16:53:53.187Z,96698.09
2023-03-07T16:56:30.134Z,96693.19
2023-03-07T16:58:57.676Z,96692.44
2023-03-07T17:01:25.034Z,96694.13
2023-03-07T17:07:22.996Z,96671.69
2023-03-07T17:09:50.497Z,96684.25
2023-03-07T17:12:18.805Z,96684.47
2023-03-07T17:14:46.751Z,96678.06
2023-03-07T17:17:30.698Z,96689.59
2023-03-07T17:20:06.253Z,96691.50
2023-03-07T17:22:35.891Z,96697.53
2023-03-07T17:25:05.234Z,96686.00
2023-03-07T17:27:33.597Z,96694.59
2023-03-07T17:30:00.738Z,96692.91
2023-03-07T17:32:27.738Z,96695.16
2023-03-07T17:34:56.125Z,96683.47
2023-03-07T17:37:23.581Z,96682.09
2023-03-07T17:39:52.077Z,96688.72
2023-03-07T17:42:19.757Z,96688.56
2023-03-07T17:44:47.505Z,96681.84
2023-03-07T17:47:14.974Z,96683.81
2023-03-07T17:49:42.159Z,96684.66
2023-03-07T17:52:09.485Z,96690.38
2023-03-07T17:54:37.520Z,96688.31
2023-03-07T17:57:08.199Z,96687.94
2023-03-07T17:59:35.422Z,96689.69
2023-03-07T18:02:02.614Z,96691.44
2023-03-07T18:04:31.743Z,96686.41
2023-03-07T18:06:59.599Z,96685.22
2023-03-07T18:09:26.759Z,96681.81
2023-03-07T18:11:53.917Z,96688.31
2023-03-07T18:14:20.944Z,96678.53
2023-03-07T18:16:48.787Z,96671.94
2023-03-07T18:19:25.750Z,96668.78
2023-03-07T18:21:53.339Z,96673.28
2023-03-07T18:24:30.291Z,96673.62
2023-03-07T18:26:59.397Z,96681.16
2023-03-07T18:29:28.037Z,96681.41
2023-03-07T18:31:54.901Z,96666.12
2023-03-07T18:34:21.768Z,96670.75
2023-03-07T18:36:51.786Z,96669.94
2023-03-07T18:39:20.224Z,96670.34
2023-03-07T18:41:48.700Z,96662.53
2023-03-07T18:44:18.454Z,96660.16
2023-03-07T18:46:45.938Z,96658.03
2023-03-07T18:49:12.994Z,96650.03
2023-03-07T18:51:40.421Z,96652.97
2023-03-07T18:54:09.126Z,96651.47
2023-03-07T18:56:36.156Z,96654.44
2023-03-07T18:59:03.585Z,96656.47
2023-03-07T19:01:33.048Z,96656.56
2023-03-07T19:04:03.411Z,96657.22
2023-03-07T19:06:34.663Z,96654.03
2023-03-07T19:09:03.675Z,96649.06
2023-03-07T19:11:31.041Z,96659.41
2023-03-07T19:13:58.113Z,96659.66
2023-03-07T19:16:27.014Z,96658.41
2023-03-07T19:18:54.984Z,96654.50
2023-03-07T19:21:24.799Z,96651.53
2023-03-07T19:23:53.135Z,96647.72
2023-03-07T19:26:20.924Z,96641.53
2023-03-07T19:28:49.955Z,96641.13
2023-03-07T19:31:18.976Z,96644.47
2023-03-07T19:33:46.858Z,96638.16
2023-03-07T19:36:16.062Z,96632.56
2023-03-07T19:38:43.378Z,96635.72
2023-03-07T19:41:13.670Z,96630.69
2023-03-07T19:43:40.779Z,96633.41
2023-03-07T19:46:09.593Z,96632.13
2023-03-07T19:48:38.824Z,96634.75
2023-03-07T19:51:18.659Z,96638.25
2023-03-07T19:53:46.021Z,96632.25
2023-03-07T19:56:16.163Z,96635.31
2023-03-07T19:58:43.070Z,96629.53
2023-03-07T20:01:11.712Z,96623.13
2023-03-07T20:03:38.980Z,96630.63
2023-03-07T20:06:07.807Z,96627.13
2023-03-07T20:08:35.157Z,96627.56
2023-03-07T20:11:16.233Z,96636.00
2023-03-07T20:13:45.752Z,96640.50
2023-03-07T20:16:13.664Z,96644.97
2023-03-07T20:18:43.760Z,96639.09
2023-03-07T20:21:12.907Z,96631.34
2023-03-07T20:23:40.103Z,96633.66
2023-03-07T20:26:12.436Z,96634.66
2023-03-07T20:28:39.443Z,96633.47
2023-03-07T20:31:09.572Z,96628.38
2023-03-07T20:33:40.700Z,96633.97
2023-03-07T20:36:08.887Z,96629.94
2023-03-07T20:38:37.116Z,96639.50
2023-03-07T20:41:09.027Z,96650.09
2023-03-07T20:43:35.999Z,96640.97
2023-03-07T20:46:06.485Z,96643.78
2023-03-07T20:48:34.267Z,96642.06
2023-03-07T20:51:16.274Z,96636.41
2023-03-07T20:53:43.185Z,96638.69
2023-03-07T20:56:10.103Z,96640.63
2023-03-07T20:58:37.162Z,96642.41
2023-03-07T21:01:04.373Z,96640.34
2023-03-07T21:03:31.333Z,96634.91
2023-03-07T21:06:00.529Z,96644.16
2023-03-07T21:08:29.240Z,96645.66
2023-03-07T21:10:59.810Z,96636.66
2023-03-07T21:13:27.653Z,96627.09
2023-03-07T21:15:59.798Z,96627.19
2023-03-07T21:18:27.655Z,96631.06
2023-03-07T21:20:54.576Z,96622.28
2023-03-07T21:23:21.499Z,96619.66
2023-03-07T21:25:48.449Z,96618.19
2023-03-07T21:28:15.287Z,96619.66
2023-03-07T21:30:42.049Z,96625.78
2023-03-07T21:33:10.953Z,96633.06
2023-03-07T21:35:38.956Z,96624.81
2023-03-07T21:38:06.450Z,96628.78
2023-03-07T21:40:33.795Z,96631.06
2023-03-07T21:43:00.731Z,96628.94
2023-03-07T21:45:27.652Z,96621.53
2023-03-07T21:47:54.614Z,96616.94
2023-03-07T21:50:21.563Z,96627.97
2023-03-07T21:52:49.006Z,96632.41
2023-03-07T21:55:16.642Z,96637.16
2023-03-07T21:57:43.719Z,96644.22
2023-03-07T22:00:14.240Z,96633.97
2023-03-07T22:02:41.116Z,96641.63
2023-03-07T22:05:08.373Z,96637.31
2023-03-07T22:07:35.443Z,96628.22
2023-03-07T22:10:02.882Z,96628.72
2023-03-07T22:12:32.390Z,96634.88
2023-03-07T22:14:59.681Z,96628.34
2023-03-07T22:17:27.404Z,96627.38
2023-03-07T22:19:54.420Z,96624.56
2023-03-07T22:22:21.301Z,96627.00
2023-03-07T22:24:51.696Z,96634.44
2023-03-07T22:27:19.205Z,96628.66
2023-03-07T22:29:46.051Z,96625.78
2023-03-07T22:32:12.779Z,96621.66
2023-03-07T22:34:39.686Z,96616.13
2023-03-07T22:37:07.390Z,96610.16
2023-03-07T22:39:34.480Z,96610.13
2023-03-07T22:42:01.418Z,96612.28
2023-03-07T22:44:28.434Z,96615.38
2023-03-07T22:46:56.401Z,96610.72
2023-03-07T22:49:23.306Z,96610.81
2023-03-07T22:51:50.204Z,96617.13
2023-03-07T22:54:17.152Z,96611.81
2023-03-07T22:56:44.181Z,96619.38
2023-03-07T22:59:11.539Z,96611.59
2023-03-07T23:01:38.545Z,96613.88
2023-03-07T23:04:07.897Z,96619.13
2023-03-07T23:06:36.417Z,96618.31
2023-03-07T23:09:05.025Z,96627.16
2023-03-07T23:11:33.068Z,96616.91
2023-03-07T23:14:00.511Z,96625.34
2023-03-07T23:16:29.719Z,96618.16
2023-03-07T23:18:58.792Z,96615.97
2023-03-07T23:21:29.016Z,96620.03
2023-03-07T23:23:56.425Z,96621.31
2023-03-07T23:26:26.054Z,96623.13
2023-03-07T23:28:53.075Z,96630.50
2023-03-07T23:31:22.420Z,96631.72
2023-03-07T23:33:49.916Z,96630.09
2023-03-07T23:36:17.513Z,96627.38
2023-03-07T23:38:46.440Z,96631.00
2023-03-07T23:41:14.042Z,96632.22
2023-03-07T23:43:40.980Z,96640.41
2023-03-07T23:46:07.955Z,96638.75
2023-03-07T23:48:34.983Z,96638.53
2023-03-07T23:51:01.935Z,96626.81
2023-03-07T23:53:28.837Z,96637.06
2023-03-07T23:55:55.747Z,96632.37
2023-03-07T23:58:22.656Z,96632.94
